Time;durP1;ratioP1;P1;durP2;ratioP2;P2;SDS_P1;SDS_P2;PMS_P1;PMS_P2;Temp;Humidity;BMP_temperature;BMP_pressure;BME280_temperature;BME280_humidity;BME280_pressure;Samples;Min_cycle;Max_cycle;Signal;HPM_P1;HPM_P2
2021/05/27 00:00:36;;;;;;;3.38;1.77;;;9.20;99.90;;;;;;5010951;28;20022;-77
2021/05/27 00:03:03;;;;;;;2.65;1.52;;;9.20;99.90;;;;;;5009627;28;20029;-76
2021/05/27 00:05:29;;;;;;;4.25;2.08;;;9.20;99.90;;;;;;5009606;28;20030;-76
2021/05/27 00:07:55;;;;;;;3.28;1.67;;;9.10;99.90;;;;;;5010841;28;20068;-76
2021/05/27 00:10:24;;;;;;;4.05;2.38;;;9.10;99.90;;;;;;5009533;28;20037;-76
2021/05/27 00:12:50;;;;;;;2.53;1.63;;;9.10;99.90;;;;;;5010666;28;20029;-75
2021/05/27 00:15:17;;;;;;;2.40;1.70;;;9.10;99.90;;;;;;5009382;28;20042;-76
2021/05/27 00:17:43;;;;;;;2.70;1.90;;;9.10;99.90;;;;;;5009358;28;20087;-75
2021/05/27 00:20:10;;;;;;;3.22;2.05;;;9.10;99.90;;;;;;5010637;28;20398;-76
2021/05/27 00:22:36;;;;;;;3.45;1.80;;;9.10;99.90;;;;;;5009345;28;20029;-76
2021/05/27 00:25:03;;;;;;;3.20;1.60;;;9.10;99.90;;;;;;5010612;28;20102;-76
2021/05/27 00:27:28;;;;;;;2.30;1.40;;;9.00;99.90;;;;;;5009057;28;20391;-75
2021/05/27 00:29:54;;;;;;;3.58;1.67;;;9.00;99.90;;;;;;5009216;28;20022;-75
2021/05/27 00:32:20;;;;;;;3.22;1.60;;;9.10;99.90;;;;;;5010355;28;20043;-75
2021/05/27 00:34:45;;;;;;;2.33;1.60;;;9.10;99.90;;;;;;5010415;28;20118;-75
2021/05/27 00:37:11;;;;;;;2.20;1.60;;;9.10;99.90;;;;;;5008239;28;20030;-75
2021/05/27 00:39:36;;;;;;;3.42;1.70;;;9.10;99.90;;;;;;5010325;28;20503;-76
2021/05/27 00:42:02;;;;;;;3.50;1.50;;;9.10;99.90;;;;;;5009020;28;20022;-75
2021/05/27 00:44:29;;;;;;;2.25;1.58;;;9.10;99.90;;;;;;5008851;28;20034;-75
2021/05/27 00:46:56;;;;;;;5.72;1.50;;;9.00;99.90;;;;;;5009765;28;20088;-75
2021/05/27 00:49:22;;;;;;;2.80;1.48;;;9.10;99.90;;;;;;5008718;28;20506;-75
2021/05/27 00:51:49;;;;;;;2.35;1.40;;;9.10;99.90;;;;;;5008711;28;20030;-75
2021/05/27 00:54:15;;;;;;;3.20;1.42;;;9.00;99.90;;;;;;5008796;28;20499;-75
2021/05/27 00:56:41;;;;;;;2.58;1.70;;;9.00;99.90;;;;;;5008647;28;20026;-75
2021/05/27 00:59:08;;;;;;;2.55;1.73;;;9.00;99.90;;;;;;5008728;28;20021;-75
2021/05/27 01:01:34;;;;;;;2.13;1.77;;;9.00;99.90;;;;;;5009919;28;20049;-75
2021/05/27 01:04:00;;;;;;;2.50;1.40;;;9.00;99.90;;;;;;5009795;28;20022;-75
2021/05/27 01:06:26;;;;;;;2.10;1.50;;;9.00;99.90;;;;;;5009860;28;20487;-75
2021/05/27 01:08:51;;;;;;;3.03;1.75;;;9.00;99.90;;;;;;5008615;28;20072;-75
2021/05/27 01:11:18;;;;;;;4.30;1.88;;;9.00;99.90;;;;;;5008517;28;20057;-75
2021/05/27 01:13:46;;;;;;;1.90;1.42;;;9.00;99.90;;;;;;5009722;28;20048;-75
2021/05/27 01:16:20;;;;;;;2.33;1.70;;;9.00;99.90;;;;;;5009693;28;20042;-76
2021/05/27 01:18:46;;;;;;;2.78;1.63;;;9.00;99.90;;;;;;5009783;28;20056;-75
2021/05/27 01:21:12;;;;;;;2.25;1.85;;;8.90;99.90;;;;;;5009874;28;20030;-76
2021/05/27 01:23:39;;;;;;;5.00;1.40;;;9.00;99.90;;;;;;5009697;28;20025;-76
2021/05/27 01:26:09;;;;;;;2.97;1.48;;;9.00;99.90;;;;;;5008377;28;20128;-76
2021/05/27 01:28:35;;;;;;;4.40;1.95;;;9.00;99.90;;;;;;5010203;28;20136;-76
2021/05/27 01:31:04;;;;;;;4.97;1.98;;;9.00;99.90;;;;;;5009736;28;20022;-76
2021/05/27 01:33:30;;;;;;;4.88;2.20;;;9.00;99.90;;;;;;5008168;28;20037;-77
2021/05/27 01:35:56;;;;;;;3.22;1.80;;;9.00;99.90;;;;;;5009760;28;20369;-77
2021/05/27 01:38:24;;;;;;;2.58;1.65;;;9.00;99.90;;;;;;5009587;28;20022;-77
2021/05/27 01:40:51;;;;;;;2.65;2.00;;;8.90;99.90;;;;;;5009498;28;20018;-76
2021/05/27 01:43:18;;;;;;;3.08;2.28;;;9.00;99.90;;;;;;5008212;28;20026;-76
2021/05/27 01:45:44;;;;;;;3.28;2.13;;;8.90;99.90;;;;;;5009500;28;20061;-77
2021/05/27 01:48:10;;;;;;;3.70;2.42;;;8.90;99.90;;;;;;5009492;28;20123;-76
2021/05/27 01:50:39;;;;;;;3.72;1.90;;;8.90;99.90;;;;;;5012202;28;20037;-76
2021/05/27 01:53:08;;;;;;;2.92;2.15;;;9.00;99.90;;;;;;5012093;28;20442;-76
2021/05/27 01:55:39;;;;;;;3.90;2.08;;;8.90;99.90;;;;;;5013279;28;20030;-76
2021/05/27 01:58:04;;;;;;;4.30;1.88;;;8.90;99.90;;;;;;5013355;28;20498;-76
2021/05/27 02:00:30;;;;;;;3.92;2.15;;;8.90;99.90;;;;;;5013234;28;20037;-75
2021/05/27 02:02:56;;;;;;;4.70;2.00;;;8.90;99.90;;;;;;5013147;28;20479;-76
2021/05/27 02:05:22;;;;;;;3.70;2.25;;;8.90;99.90;;;;;;5011991;28;20026;-76
2021/05/27 02:07:48;;;;;;;3.08;2.10;;;8.90;99.90;;;;;;5013591;28;20399;-76
2021/05/27 02:10:14;;;;;;;2.63;1.90;;;8.90;99.90;;;;;;5013604;28;20034;-75
2021/05/27 02:12:39;;;;;;;3.45;1.80;;;8.90;99.90;;;;;;5013116;28;20022;-76
2021/05/27 02:15:07;;;;;;;3.47;1.85;;;8.90;99.90;;;;;;5011823;28;20032;-75
2021/05/27 02:17:33;;;;;;;3.50;1.85;;;8.90;99.90;;;;;;5011798;28;20018;-75
2021/05/27 02:19:58;;;;;;;3.95;2.25;;;8.80;99.90;;;;;;5011715;28;20172;-75
2021/05/27 02:22:24;;;;;;;3.53;2.33;;;8.90;99.90;;;;;;5011577;28;20018;-75
2021/05/27 02:24:50;;;;;;;4.15;2.17;;;8.80;99.90;;;;;;5013181;28;20108;-75
2021/05/27 02:27:16;;;;;;;2.67;2.03;;;8.80;99.90;;;;;;5013227;28;20087;-75
2021/05/27 02:29:41;;;;;;;4.25;2.05;;;8.80;99.90;;;;;;5011557;28;20468;-75
2021/05/27 02:32:08;;;;;;;2.70;2.00;;;8.80;99.90;;;;;;5012830;28;20156;-75
2021/05/27 02:34:33;;;;;;;3.42;2.30;;;8.80;99.90;;;;;;5012744;28;20065;-75
2021/05/27 02:36:59;;;;;;;4.47;2.70;;;8.80;99.90;;;;;;5011419;28;20061;-75
2021/05/27 02:39:25;;;;;;;4.57;2.97;;;8.80;99.90;;;;;;5011420;28;20526;-75
2021/05/27 02:41:50;;;;;;;4.35;2.72;;;8.90;99.90;;;;;;5012545;28;20160;-75
2021/05/27 02:44:16;;;;;;;5.55;2.97;;;8.80;99.90;;;;;;5012519;28;20053;-75
2021/05/27 02:46:42;;;;;;;5.50;3.25;;;8.80;99.90;;;;;;5012514;28;20507;-75
2021/05/27 02:49:07;;;;;;;4.13;2.95;;;8.90;99.90;;;;;;5012441;28;20039;-75
2021/05/27 02:51:33;;;;;;;5.05;2.90;;;8.90;99.90;;;;;;5012275;28;20076;-75
2021/05/27 02:53:59;;;;;;;4.13;2.83;;;8.80;99.90;;;;;;5010900;28;20036;-75
2021/05/27 02:56:25;;;;;;;5.45;2.90;;;8.80;99.90;;;;;;5012182;28;20030;-76
2021/05/27 02:58:50;;;;;;;5.85;2.80;;;8.90;99.90;;;;;;5012185;28;20026;-76
2021/05/27 03:01:17;;;;;;;4.32;3.13;;;8.90;99.90;;;;;;5010239;28;20121;-76
2021/05/27 03:03:42;;;;;;;5.15;3.05;;;8.90;99.90;;;;;;5010792;28;20018;-76
2021/05/27 03:06:08;;;;;;;4.95;3.55;;;8.90;99.90;;;;;;5012110;28;20036;-76
2021/05/27 03:08:36;;;;;;;4.63;3.25;;;8.90;99.90;;;;;;5012015;28;20034;-76
2021/05/27 03:11:01;;;;;;;5.07;3.63;;;8.90;99.90;;;;;;5011985;28;20025;-76
2021/05/27 03:13:27;;;;;;;5.38;3.85;;;8.80;99.90;;;;;;5010598;28;20125;-76
2021/05/27 03:15:53;;;;;;;5.97;3.75;;;8.80;99.90;;;;;;5011701;28;20017;-76
2021/05/27 03:18:18;;;;;;;5.65;3.58;;;8.80;99.90;;;;;;5011156;28;20039;-76
2021/05/27 03:20:44;;;;;;;7.50;4.28;;;8.80;99.90;;;;;;5012543;28;20037;-76
2021/05/27 03:23:11;;;;;;;6.93;4.10;;;8.80;99.90;;;;;;5012643;28;20391;-77
2021/05/27 03:25:36;;;;;;;5.05;3.80;;;8.90;99.90;;;;;;5011157;28;20030;-77
2021/05/27 03:28:02;;;;;;;6.03;3.80;;;8.90;99.90;;;;;;5011690;28;20029;-77
2021/05/27 03:30:28;;;;;;;5.70;3.70;;;8.90;99.90;;;;;;5010362;28;20025;-76
2021/05/27 03:32:55;;;;;;;6.95;3.80;;;8.90;99.90;;;;;;5011396;28;20096;-77
2021/05/27 03:35:21;;;;;;;5.72;3.72;;;8.90;99.90;;;;;;5047177;22;20497;-75
2021/05/27 03:37:46;;;;;;;6.85;3.63;;;8.90;99.90;;;;;;5032106;28;20415;-75
2021/05/27 03:40:13;;;;;;;4.45;3.38;;;8.90;99.90;;;;;;5032190;28;20025;-75
2021/05/27 03:42:51;;;;;;;5.82;4.05;;;8.90;99.90;;;;;;5030264;28;20067;-75
2021/05/27 03:45:20;;;;;;;5.63;3.67;;;8.90;99.90;;;;;;5030328;28;20021;-75
2021/05/27 03:47:46;;;;;;;4.20;3.10;;;8.90;99.90;;;;;;5030976;28;20030;-73
2021/05/27 03:50:14;;;;;;;7.22;3.63;;;8.80;99.90;;;;;;5030955;28;20120;-74
2021/05/27 03:52:40;;;;;;;5.80;4.20;;;8.80;99.90;;;;;;5029757;28;20051;-74
2021/05/27 03:55:07;;;;;;;5.43;3.50;;;8.80;99.90;;;;;;5030100;28;20027;-75
2021/05/27 03:57:33;;;;;;;4.57;3.22;;;8.80;99.90;;;;;;5029467;28;20486;-75
2021/05/27 04:02:46;;;;;;;4.20;3.50;;;8.90;99.90;;;;;;5031122;28;20028;-74
2021/05/27 04:07:57;;;;;;;6.57;3.97;;;8.90;99.90;;;;;;5031062;28;20036;-74
2021/05/27 04:10:23;;;;;;;6.35;4.18;;;9.00;99.90;;;;;;5030665;28;20018;-74
2021/05/27 04:12:49;;;;;;;5.75;4.13;;;9.00;99.90;;;;;;5030558;28;20026;-73
2021/05/27 04:18:14;;;;;;;6.95;4.43;;;9.00;99.90;;;;;;5030766;28;20155;-74
2021/05/27 04:20:51;;;;;;;5.93;4.20;;;9.10;99.90;;;;;;5030707;28;20510;-75
2021/05/27 04:23:36;;;;;;;6.90;4.30;;;9.10;99.90;;;;;;5030702;28;20029;-74
2021/05/27 04:26:03;;;;;;;6.18;4.10;;;9.10;99.90;;;;;;5030280;28;20482;-74
2021/05/27 04:28:30;;;;;;;8.35;4.88;;;9.10;99.90;;;;;;5028982;28;20105;-74
2021/05/27 04:31:12;;;;;;;7.43;4.53;;;9.20;99.90;;;;;;5030245;28;20070;-73
2021/05/27 04:33:43;;;;;;;7.65;4.47;;;9.10;99.90;;;;;;5030479;28;20025;-73
2021/05/27 04:36:17;;;;;;;6.95;4.47;;;9.20;99.90;;;;;;5028657;28;20037;-73
2021/05/27 04:38:43;;;;;;;6.78;4.47;;;9.20;99.90;;;;;;5028990;28;20029;-73
2021/05/27 04:41:09;;;;;;;6.20;4.57;;;9.20;99.90;;;;;;5028868;28;20390;-73
2021/05/27 04:43:37;;;;;;;7.55;5.03;;;9.30;99.90;;;;;;5030093;28;20025;-73
2021/05/27 04:46:03;;;;;;;8.43;4.72;;;9.30;99.90;;;;;;5030153;28;20026;-73
2021/05/27 04:48:28;;;;;;;6.30;4.88;;;9.40;99.90;;;;;;5028780;28;20022;-74
2021/05/27 04:50:54;;;;;;;6.50;5.35;;;9.40;99.90;;;;;;5028688;28;20503;-74
2021/05/27 04:53:21;;;;;;;6.05;4.07;;;9.40;99.90;;;;;;5028737;28;20025;-74
2021/05/27 04:55:47;;;;;;;6.10;3.90;;;9.40;99.90;;;;;;5028925;28;20076;-74
2021/05/27 04:58:13;;;;;;;6.10;4.70;;;9.50;99.90;;;;;;5035294;28;20024;-74
2021/05/27 05:00:38;;;;;;;5.80;4.50;;;9.50;99.90;;;;;;5029673;28;20395;-74
2021/05/27 05:03:04;;;;;;;7.13;4.13;;;9.70;99.90;;;;;;5029758;28;20467;-73
2021/05/27 05:05:32;;;;;;;4.57;3.50;;;9.80;99.90;;;;;;5029946;28;20033;-73
2021/05/27 05:07:58;;;;;;;6.03;3.80;;;9.90;99.90;;;;;;5029626;28;20032;-74
2021/05/27 05:10:25;;;;;;;4.80;3.30;;;9.90;99.90;;;;;;5028428;28;20025;-74
2021/05/27 05:12:52;;;;;;;5.65;3.83;;;10.00;99.90;;;;;;5028341;28;20438;-74
2021/05/27 05:15:33;;;;;;;3.50;3.17;;;10.10;99.90;;;;;;5028185;28;20061;-74
2021/05/27 05:18:00;;;;;;;5.40;3.17;;;10.20;99.90;;;;;;5029586;28;20395;-74
2021/05/27 05:20:37;;;;;;;5.05;3.13;;;10.30;99.90;;;;;;5029491;28;20128;-75
2021/05/27 05:23:04;;;;;;;3.53;2.95;;;10.40;99.90;;;;;;5029528;28;20114;-74
2021/05/27 05:25:31;;;;;;;3.67;2.80;;;10.50;99.90;;;;;;5029387;28;20041;-74
2021/05/27 05:27:57;;;;;;;4.20;2.75;;;10.50;99.90;;;;;;5028116;28;20087;-74
2021/05/27 05:30:26;;;;;;;3.50;2.80;;;10.50;99.90;;;;;;5028100;28;20052;-74
2021/05/27 05:32:52;;;;;;;4.47;2.85;;;10.50;99.90;;;;;;5029273;28;20022;-76
2021/05/27 05:35:18;;;;;;;3.60;2.40;;;10.40;99.90;;;;;;5028955;28;20108;-76
2021/05/27 05:37:45;;;;;;;4.25;2.88;;;10.40;99.90;;;;;;5029293;28;20039;-74
2021/05/27 05:40:12;;;;;;;3.75;2.63;;;10.40;99.90;;;;;;5029608;28;20029;-76
2021/05/27 05:42:41;;;;;;;3.72;2.38;;;10.50;99.90;;;;;;5029309;28;20029;-76
2021/05/27 05:45:09;;;;;;;5.72;2.65;;;10.60;99.90;;;;;;5029167;28;20053;-76
2021/05/27 05:47:35;;;;;;;6.10;2.47;;;10.70;99.90;;;;;;5028021;28;20022;-74
2021/05/27 05:50:02;;;;;;;3.22;2.28;;;10.90;99.90;;;;;;5028041;28;20041;-74
2021/05/27 05:52:28;;;;;;;2.25;1.95;;;11.00;99.90;;;;;;5029692;28;20026;-76
2021/05/27 05:54:54;;;;;;;2.63;2.03;;;11.20;99.90;;;;;;5029069;28;20075;-75
2021/05/27 05:57:20;;;;;;;3.63;2.05;;;11.30;99.90;;;;;;5027601;28;20511;-75
2021/05/27 05:59:45;;;;;;;3.78;2.17;;;11.30;99.90;;;;;;5027921;28;20029;-75
2021/05/27 06:02:11;;;;;;;2.78;1.80;;;11.20;99.90;;;;;;5027928;28;20025;-75
2021/05/27 06:04:37;;;;;;;2.70;1.60;;;11.30;99.90;;;;;;5029010;28;20490;-75
2021/05/27 06:07:03;;;;;;;1.75;1.17;;;11.30;99.90;;;;;;5026923;28;20025;-74
2021/05/27 06:09:28;;;;;;;2.47;1.38;;;11.20;99.90;;;;;;5029171;28;20586;-72
2021/05/27 06:11:54;;;;;;;2.58;1.52;;;11.20;99.90;;;;;;5028904;28;20029;-74
2021/05/27 06:14:20;;;;;;;1.60;1.30;;;11.10;99.90;;;;;;5028779;28;20394;-74
2021/05/27 06:16:46;;;;;;;2.78;1.63;;;11.10;99.90;;;;;;5027591;28;20029;-74
2021/05/27 06:19:12;;;;;;;1.27;1.17;;;11.00;99.90;;;;;;5028901;28;20028;-74
2021/05/27 06:21:37;;;;;;;2.35;1.15;;;11.00;99.90;;;;;;5027605;28;20394;-73
2021/05/27 06:24:04;;;;;;;1.60;1.27;;;11.00;99.90;;;;;;5029433;28;20030;-73
2021/05/27 06:26:31;;;;;;;2.28;1.50;;;11.00;99.90;;;;;;5028716;28;20050;-74
2021/05/27 06:28:57;;;;;;;3.00;1.38;;;11.10;99.90;;;;;;5027587;28;20509;-74
2021/05/27 06:31:22;;;;;;;2.03;1.40;;;11.20;99.90;;;;;;5027544;28;20029;-74
2021/05/27 06:33:49;;;;;;;2.03;1.40;;;11.30;99.90;;;;;;5027466;28;20053;-74
2021/05/27 06:36:15;;;;;;;1.70;1.40;;;11.50;99.90;;;;;;5031710;28;20030;-74
2021/05/27 06:38:40;;;;;;;1.92;1.38;;;11.70;99.90;;;;;;5031180;28;20021;-74
2021/05/27 06:41:07;;;;;;;3.58;1.70;;;11.80;99.90;;;;;;5031469;28;20040;-75
2021/05/27 06:43:33;;;;;;;1.85;1.50;;;11.90;99.90;;;;;;5033079;28;20029;-74
2021/05/27 06:45:59;;;;;;;2.10;1.33;;;11.90;99.90;;;;;;5032306;28;20029;-74
2021/05/27 06:48:24;;;;;;;2.88;1.58;;;11.90;99.90;;;;;;5032604;28;20454;-74
2021/05/27 06:50:50;;;;;;;2.67;1.63;;;12.00;99.90;;;;;;5032897;28;20506;-75
2021/05/27 06:53:16;;;;;;;4.35;1.60;;;12.10;99.90;;;;;;5031116;28;20029;-74
2021/05/27 06:55:43;;;;;;;2.38;1.40;;;12.00;99.90;;;;;;5032742;28;20371;-74
2021/05/27 06:58:10;;;;;;;3.22;1.42;;;12.00;99.90;;;;;;5031440;28;20076;-75
2021/05/27 07:00:36;;;;;;;3.83;1.70;;;12.10;99.90;;;;;;5031665;28;20034;-74
2021/05/27 07:03:03;;;;;;;2.85;1.50;;;12.10;99.90;;;;;;5032266;28;20497;-74
2021/05/27 07:05:30;;;;;;;2.30;1.45;;;12.30;99.90;;;;;;5030604;28;20052;-74
2021/05/27 07:07:56;;;;;;;2.17;1.40;;;12.40;99.90;;;;;;5030541;28;20025;-76
2021/05/27 07:10:22;;;;;;;1.77;1.58;;;12.50;99.90;;;;;;5031621;28;20032;-75
2021/05/27 07:12:52;;;;;;;2.50;1.98;;;12.30;99.90;;;;;;5031821;28;20021;-75
2021/05/27 07:15:19;;;;;;;3.50;1.98;;;12.30;99.90;;;;;;5031352;28;20156;-75
2021/05/27 07:17:46;;;;;;;3.22;1.92;;;12.30;99.90;;;;;;5031760;28;20017;-75
2021/05/27 07:20:13;;;;;;;2.40;1.45;;;12.50;99.90;;;;;;5030200;28;20112;-74
2021/05/27 07:22:38;;;;;;;2.25;1.67;;;12.40;99.90;;;;;;5031961;28;20029;-74
2021/05/27 07:25:05;;;;;;;2.65;1.40;;;12.40;99.90;;;;;;5031407;28;20017;-75
2021/05/27 07:27:30;;;;;;;3.78;2.20;;;12.50;99.90;;;;;;5031429;28;20087;-75
2021/05/27 07:29:56;;;;;;;2.88;1.40;;;12.50;99.90;;;;;;5031363;28;20029;-74
2021/05/27 07:32:22;;;;;;;2.15;1.55;;;12.40;99.90;;;;;;5031269;28;20032;-75
2021/05/27 07:34:47;;;;;;;2.35;1.70;;;12.50;99.90;;;;;;5029870;28;20029;-75
2021/05/27 07:37:13;;;;;;;3.08;1.67;;;12.60;99.90;;;;;;5031177;28;20025;-74
2021/05/27 07:39:39;;;;;;;1.20;1.10;;;12.80;99.90;;;;;;5031096;28;20025;-74
2021/05/27 07:42:06;;;;;;;4.43;1.60;;;12.90;99.90;;;;;;5031107;28;20030;-75
2021/05/27 07:44:33;;;;;;;1.85;1.30;;;13.00;99.90;;;;;;5031063;28;20037;-75
2021/05/27 07:46:59;;;;;;;2.50;1.45;;;13.10;99.90;;;;;;5030844;28;20025;-74
2021/05/27 07:49:25;;;;;;;2.92;1.38;;;13.20;99.90;;;;;;5029804;28;20033;-75
2021/05/27 07:51:50;;;;;;;2.13;1.40;;;13.10;99.90;;;;;;5029751;28;20029;-73
2021/05/27 07:54:16;;;;;;;1.42;1.20;;;13.00;99.90;;;;;;5030887;28;20032;-74
2021/05/27 07:56:42;;;;;;;4.20;1.40;;;13.00;99.90;;;;;;5030948;28;20025;-74
2021/05/27 07:59:08;;;;;;;1.67;1.00;;;12.90;99.90;;;;;;5031199;28;20021;-74
2021/05/27 08:01:34;;;;;;;1.58;1.27;;;12.60;99.90;;;;;;5030739;28;20014;-74
2021/05/27 08:04:03;;;;;;;1.60;1.10;;;12.40;99.90;;;;;;5030996;28;20436;-74
2021/05/27 08:06:28;;;;;;;2.33;1.40;;;12.20;99.90;;;;;;5030695;28;20021;-75
2021/05/27 08:08:55;;;;;;;3.88;1.40;;;12.10;99.90;;;;;;5029243;28;20483;-74
2021/05/27 08:11:20;;;;;;;6.75;1.45;;;12.00;99.90;;;;;;5029328;28;20037;-74
2021/05/27 08:13:46;;;;;;;5.07;1.70;;;11.90;99.90;;;;;;5030570;28;20026;-74
2021/05/27 08:16:13;;;;;;;4.13;1.40;;;11.90;99.90;;;;;;5029935;28;20104;-74
2021/05/27 08:18:39;;;;;;;1.88;1.15;;;12.00;99.90;;;;;;5029303;28;20510;-75
2021/05/27 08:21:05;;;;;;;2.83;1.23;;;12.10;99.90;;;;;;5030514;28;20029;-74
2021/05/27 08:23:30;;;;;;;1.77;1.27;;;12.30;99.90;;;;;;5030437;28;20094;-75
2021/05/27 08:25:56;;;;;;;2.88;1.10;;;12.40;99.90;;;;;;5030252;28;20055;-74
2021/05/27 08:28:21;;;;;;;2.35;1.20;;;12.50;99.90;;;;;;5030407;28;20030;-72
2021/05/27 08:30:47;;;;;;;2.03;0.98;;;12.60;99.90;;;;;;5030419;28;20022;-74
2021/05/27 08:33:13;;;;;;;1.45;0.90;;;12.70;99.90;;;;;;5030368;28;20423;-74
2021/05/27 08:35:38;;;;;;;3.42;1.42;;;12.80;99.90;;;;;;5028729;28;20142;-75
2021/05/27 08:38:04;;;;;;;3.65;0.80;;;12.90;99.90;;;;;;5030554;28;20018;-73
2021/05/27 08:40:29;;;;;;;1.63;1.05;;;13.00;99.90;;;;;;5030171;28;20117;-73
2021/05/27 08:42:58;;;;;;;1.20;0.90;;;13.10;99.90;;;;;;5030791;28;20029;-74
2021/05/27 08:45:28;;;;;;;2.70;1.02;;;13.00;99.90;;;;;;5030092;28;20025;-74
2021/05/27 08:47:54;;;;;;;1.77;1.00;;;13.10;99.90;;;;;;5031259;28;20021;-74
2021/05/27 08:50:29;;;;;;;4.15;0.90;;;13.10;99.90;;;;;;5030341;28;20068;-74
2021/05/27 08:52:55;;;;;;;5.03;1.30;;;13.20;99.90;;;;;;5030323;28;20471;-73
2021/05/27 08:55:21;;;;;;;2.25;0.93;;;13.10;99.90;;;;;;5030959;28;20421;-73
2021/05/27 08:57:46;;;;;;;4.13;0.90;;;13.10;99.90;;;;;;5028053;28;20112;-74
2021/05/27 09:00:12;;;;;;;2.35;0.80;;;13.10;99.90;;;;;;5030085;28;20026;-74
2021/05/27 09:03:01;;;;;;;1.88;0.80;;;13.00;99.90;;;;;;5030188;28;20037;-73
2021/05/27 09:05:32;;;;;;;1.85;0.80;;;12.90;99.90;;;;;;5029872;28;20033;-73
2021/05/27 09:08:01;;;;;;;2.28;1.00;;;12.80;99.90;;;;;;5028395;28;20053;-73
2021/05/27 09:10:45;;;;;;;2.33;1.33;;;12.70;99.90;;;;;;5029892;28;20074;-73
2021/05/27 09:13:20;;;;;;;3.15;1.50;;;12.60;99.90;;;;;;5029739;28;20109;-74
2021/05/27 09:15:49;;;;;;;3.60;1.30;;;12.60;99.90;;;;;;5029424;28;20076;-73
2021/05/27 09:18:33;;;;;;;2.28;1.20;;;12.60;99.90;;;;;;5029725;28;20049;-72
2021/05/27 09:21:00;;;;;;;1.77;1.27;;;12.70;99.90;;;;;;5029798;28;20097;-74
2021/05/27 09:23:25;;;;;;;2.47;1.25;;;12.70;99.90;;;;;;5028238;28;20033;-74
2021/05/27 09:25:56;;;;;;;0.90;0.88;;;12.70;99.90;;;;;;5029433;28;20316;-73
2021/05/27 09:28:29;;;;;;;0.88;0.80;;;12.70;99.90;;;;;;5029611;28;20041;-73
2021/05/27 09:31:02;;;;;;;1.83;1.05;;;12.80;99.90;;;;;;5028142;28;20486;-73
2021/05/27 09:33:36;;;;;;;;;;;12.70;99.90;;;;;;5028192;28;20045;-75
2021/05/27 09:36:07;;;;;;;0.70;0.70;;;12.60;99.90;;;;;;5030152;28;20008;-74
2021/05/27 09:38:38;;;;;;;1.65;0.80;;;12.60;99.90;;;;;;5029641;28;20025;-73
2021/05/27 09:41:21;;;;;;;2.20;0.82;;;12.70;99.90;;;;;;5029496;28;20033;-75
2021/05/27 09:43:50;;;;;;;;;;;13.00;99.90;;;;;;5029702;28;20414;-73
2021/05/27 09:46:17;;;;;;;1.42;0.60;;;13.30;99.90;;;;;;5029479;28;19940;-73
2021/05/27 09:48:44;;;;;;;1.67;1.00;;;13.40;99.90;;;;;;5029667;28;20389;-72
2021/05/27 09:51:10;;;;;;;2.00;1.48;;;13.50;99.90;;;;;;5029652;28;20026;-73
2021/05/27 09:53:36;;;;;;;1.88;1.33;;;13.50;99.90;;;;;;5029418;28;20017;-74
2021/05/27 09:56:04;;;;;;;1.65;1.10;;;13.60;99.90;;;;;;5027953;28;20550;-73
2021/05/27 09:58:31;;;;;;;1.67;1.10;;;13.70;99.90;;;;;;5029192;28;20030;-73
2021/05/27 10:00:56;;;;;;;1.27;1.00;;;13.70;99.90;;;;;;5027937;28;20203;-74
2021/05/27 10:03:33;;;;;;;1.40;1.02;;;13.70;99.90;;;;;;5029219;28;20087;-74
2021/05/27 10:06:07;;;;;;;1.10;1.00;;;13.80;99.90;;;;;;5027630;28;20081;-74
2021/05/27 10:08:53;;;;;;;3.05;1.45;;;14.20;99.90;;;;;;5029620;28;20057;-73
2021/05/27 10:11:19;;;;;;;1.65;1.17;;;14.90;99.90;;;;;;5032915;28;20076;-74
2021/05/27 10:13:46;;;;;;;2.00;1.30;;;15.20;99.90;;;;;;5031632;28;20033;-74
2021/05/27 10:16:22;;;;;;;1.25;1.10;;;15.20;99.90;;;;;;5032844;28;20521;-74
2021/05/27 10:18:48;;;;;;;1.98;1.23;;;15.20;99.90;;;;;;5033323;28;20021;-73
2021/05/27 10:21:14;;;;;;;2.00;1.40;;;14.90;99.90;;;;;;5033004;28;20025;-73
2021/05/27 10:23:40;;;;;;;1.27;1.17;;;14.40;99.90;;;;;;5032762;28;20026;-73
2021/05/27 10:26:06;;;;;;;2.15;1.58;;;13.90;99.90;;;;;;5031373;28;20164;-73
2021/05/27 10:28:33;;;;;;;2.63;1.83;;;13.80;99.90;;;;;;5032717;28;20475;-74
2021/05/27 10:30:59;;;;;;;2.80;1.38;;;13.90;99.90;;;;;;5031389;28;20025;-74
2021/05/27 10:33:26;;;;;;;1.92;1.20;;;14.40;99.90;;;;;;5042385;22;20042;-76
2021/05/27 10:36:00;;;;;;;2.10;1.17;;;14.70;99.90;;;;;;5011729;28;20399;-76
2021/05/27 10:38:43;;;;;;;3.75;1.63;;;15.10;99.90;;;;;;5010956;28;20490;-76
2021/05/27 10:41:09;;;;;;;2.20;1.77;;;15.30;99.90;;;;;;5011872;28;20045;-75
2021/05/27 10:43:35;;;;;;;2.88;1.15;;;15.40;99.90;;;;;;5010555;28;20025;-75
2021/05/27 10:46:10;;;;;;;1.40;1.30;;;15.60;99.90;;;;;;5010431;28;20514;-76
2021/05/27 10:48:42;;;;;;;3.38;1.27;;;15.60;99.90;;;;;;5010730;28;20036;-75
2021/05/27 10:51:17;;;;;;;2.25;1.10;;;15.60;99.90;;;;;;5011192;28;20025;-75
2021/05/27 10:53:42;;;;;;;1.90;1.60;;;15.40;99.90;;;;;;5012817;28;20050;-74
2021/05/27 10:56:14;;;;;;;6.15;1.50;;;15.20;99.90;;;;;;5012237;28;20592;-75
2021/05/27 10:58:46;;;;;;;2.22;0.90;;;15.00;99.90;;;;;;5011119;28;20018;-74
2021/05/27 11:01:17;;;;;;;0.95;0.82;;;15.00;99.90;;;;;;5012302;28;20026;-74
2021/05/27 11:03:55;;;;;;;2.05;0.90;;;15.00;99.90;;;;;;5012222;28;20112;-75
2021/05/27 11:06:31;;;;;;;1.55;1.00;;;15.20;99.90;;;;;;5012384;28;20022;-75
2021/05/27 11:09:20;;;;;;;1.50;1.00;;;15.80;99.90;;;;;;5012183;28;20026;-75
2021/05/27 11:11:47;;;;;;;1.45;1.00;;;16.20;99.90;;;;;;5011031;28;20097;-75
2021/05/27 11:14:27;;;;;;;2.08;0.98;;;16.40;99.90;;;;;;5010815;28;20030;-75
2021/05/27 11:17:06;;;;;;;1.52;1.02;;;16.50;99.90;;;;;;5011961;28;20022;-74
2021/05/27 11:19:52;;;;;;;1.40;0.90;;;16.40;99.90;;;;;;5012258;28;20018;-75
2021/05/27 11:25:16;;;;;;;3.13;0.88;;;16.40;99.90;;;;;;5012000;28;20101;-74
2021/05/27 11:27:45;;;;;;;1.40;0.95;;;16.60;99.90;;;;;;5010621;28;20026;-75
2021/05/27 11:30:14;;;;;;;3.35;1.08;;;16.60;99.90;;;;;;5011719;28;20092;-75
2021/05/27 11:32:40;;;;;;;3.28;1.40;;;16.70;99.90;;;;;;5011634;28;20025;-75
2021/05/27 11:35:06;;;;;;;1.80;1.42;;;16.60;99.90;;;;;;5011548;28;20052;-74
2021/05/27 11:37:34;;;;;;;3.42;1.30;;;16.40;99.90;;;;;;5011501;28;20077;-74
2021/05/27 11:40:00;;;;;;;1.73;1.30;;;16.30;99.90;;;;;;5011600;28;20014;-74
2021/05/27 11:42:26;;;;;;;1.90;0.93;;;16.30;99.90;;;;;;5010248;28;20029;-74
2021/05/27 11:45:00;;;;;;;3.53;1.20;;;16.10;99.90;;;;;;5010175;28;20026;-75
2021/05/27 11:47:29;;;;;;;3.25;1.30;;;15.70;99.90;;;;;;5010095;28;20491;-74
2021/05/27 11:50:05;;;;;;;2.05;1.17;;;15.70;99.90;;;;;;5010115;28;20103;-74
2021/05/27 11:52:31;;;;;;;3.30;1.02;;;15.70;99.90;;;;;;5010056;28;20026;-74
2021/05/27 11:54:57;;;;;;;3.28;1.27;;;15.80;99.90;;;;;;5011157;28;20025;-74
2021/05/27 11:57:43;;;;;;;2.22;0.85;;;15.90;99.90;;;;;;5009881;28;20034;-74
2021/05/27 12:00:11;;;;;;;1.15;0.98;;;16.00;98.40;;;;;;5011064;28;20105;-74
2021/05/27 12:02:47;;;;;;;2.47;1.23;;;16.00;97.10;;;;;;5009783;28;20542;-74
2021/05/27 12:05:29;;;;;;;2.47;0.80;;;16.10;97.20;;;;;;5011010;28;20487;-74
2021/05/27 12:08:03;;;;;;;2.45;0.80;;;16.00;95.40;;;;;;5010968;28;20022;-74
2021/05/27 12:10:36;;;;;;;3.25;1.00;;;16.00;96.40;;;;;;5010981;28;20157;-74
2021/05/27 12:13:04;;;;;;;4.78;1.60;;;16.00;96.90;;;;;;5011201;28;20021;-74
2021/05/27 12:15:31;;;;;;;1.40;0.80;;;15.90;98.00;;;;;;5009520;28;20030;-74
2021/05/27 12:17:58;;;;;;;1.15;0.90;;;15.70;96.70;;;;;;5009557;28;20033;-74
2021/05/27 12:20:32;;;;;;;0.95;0.80;;;15.90;97.20;;;;;;5010770;28;20054;-74
2021/05/27 12:23:05;;;;;;;3.35;1.10;;;16.10;94.70;;;;;;5010978;28;20112;-74
2021/05/27 12:25:36;;;;;;;1.13;0.90;;;16.10;96.10;;;;;;5010829;28;20391;-74
2021/05/27 12:28:05;;;;;;;2.38;1.20;;;16.10;95.50;;;;;;5010669;28;20021;-74
2021/05/27 12:30:36;;;;;;;1.58;0.70;;;17.30;96.00;;;;;;5009334;28;20028;-74
2021/05/27 12:33:05;;;;;;;1.23;0.90;;;19.50;86.80;;;;;;5008214;28;20037;-74
2021/05/27 12:35:32;;;;;;;1.70;0.80;;;21.80;70.90;;;;;;5009165;28;20049;-75
2021/05/27 12:37:59;;;;;;;1.67;1.02;;;24.10;56.70;;;;;;5010737;28;20096;-76
2021/05/27 12:40:36;;;;;;;2.83;0.95;;;26.20;48.90;;;;;;5009238;28;20030;-75
2021/05/27 12:43:23;;;;;;;1.85;0.90;;;27.00;47.80;;;;;;5009206;28;20022;-76
2021/05/27 12:45:50;;;;;;;3.28;0.80;;;27.30;43.00;;;;;;5010473;28;20034;-75
2021/05/27 12:48:21;;;;;;;3.03;0.80;;;27.50;42.30;;;;;;5010375;28;20080;-75
2021/05/27 12:51:02;;;;;;;1.55;0.80;;;28.40;41.40;;;;;;5010301;28;20399;-75
2021/05/27 12:53:38;;;;;;;1.10;0.65;;;30.00;38.00;;;;;;5008994;28;20022;-75
2021/05/27 12:56:19;;;;;;;3.33;0.90;;;30.00;35.60;;;;;;5008885;28;20032;-76
2021/05/27 12:59:09;;;;;;;3.22;0.80;;;30.00;35.80;;;;;;5010440;28;20029;-76
2021/05/27 13:01:47;;;;;;;3.42;1.13;;;29.90;36.00;;;;;;5002632;28;20119;-76
2021/05/27 13:04:18;;;;;;;1.10;0.80;;;29.40;34.80;;;;;;5009965;28;20503;-76
2021/05/27 13:06:44;;;;;;;0.90;0.55;;;28.80;35.70;;;;;;5008772;28;20026;-75